sensor_id;sensor_type;location;lat;lon;timestamp;temperature;humidity
73777;DHT22;62088;50.240;2.696;2023-02-08T00:00:48;-3276.70;77.40
73777;DHT22;62088;50.240;2.696;2023-02-08T00:03:15;-3276.70;77.40
73777;DHT22;62088;50.240;2.696;2023-02-08T00:05:42;-3276.60;77.40
73777;DHT22;62088;50.240;2.696;2023-02-08T00:08:09;-3276.60;77.50
73777;DHT22;62088;50.240;2.696;2023-02-08T00:10:37;-3276.60;77.40
73777;DHT22;62088;50.240;2.696;2023-02-08T00:13:05;-3276.60;77.40
73777;DHT22;62088;50.240;2.696;2023-02-08T00:15:31;-3276.60;77.50
73777;DHT22;62088;50.240;2.696;2023-02-08T00:17:59;-3276.60;77.50
73777;DHT22;62088;50.240;2.696;2023-02-08T00:20:26;-3276.60;77.50
73777;DHT22;62088;50.240;2.696;2023-02-08T00:22:53;-3276.50;77.40
73777;DHT22;62088;50.240;2.696;2023-02-08T00:25:20;-3276.50;77.40
73777;DHT22;62088;50.240;2.696;2023-02-08T00:27:47;-3276.50;77.50
73777;DHT22;62088;50.240;2.696;2023-02-08T00:30:14;-3276.50;77.40
73777;DHT22;62088;50.240;2.696;2023-02-08T00:32:41;-3276.50;77.40
73777;DHT22;62088;50.240;2.696;2023-02-08T00:35:08;-3276.50;77.50
73777;DHT22;62088;50.240;2.696;2023-02-08T00:37:35;-3276.40;77.50
73777;DHT22;62088;50.240;2.696;2023-02-08T00:40:03;-3276.40;77.50
73777;DHT22;62088;50.240;2.696;2023-02-08T00:42:32;-3276.40;77.50
73777;DHT22;62088;50.240;2.696;2023-02-08T00:44:59;-3276.40;77.50
73777;DHT22;62088;50.240;2.696;2023-02-08T00:47:26;-3276.40;77.50
73777;DHT22;62088;50.240;2.696;2023-02-08T00:49:53;-3276.40;77.50
73777;DHT22;62088;50.240;2.696;2023-02-08T00:52:20;-3276.40;77.50
73777;DHT22;62088;50.240;2.696;2023-02-08T00:54:48;-3276.40;77.50
73777;DHT22;62088;50.240;2.696;2023-02-08T00:57:15;-3276.40;77.60
73777;DHT22;62088;50.240;2.696;2023-02-08T00:59:42;-3276.30;77.60
73777;DHT22;62088;50.240;2.696;2023-02-08T01:02:09;-3276.30;77.70
73777;DHT22;62088;50.240;2.696;2023-02-08T01:04:37;-3276.30;77.60
73777;DHT22;62088;50.240;2.696;2023-02-08T01:07:05;-3276.30;77.60
73777;DHT22;62088;50.240;2.696;2023-02-08T01:09:33;-3276.30;77.60
73777;DHT22;62088;50.240;2.696;2023-02-08T01:12:01;-3276.30;77.50
73777;DHT22;62088;50.240;2.696;2023-02-08T01:14:28;-3276.30;77.50
73777;DHT22;62088;50.240;2.696;2023-02-08T01:16:57;-3276.30;77.50
73777;DHT22;62088;50.240;2.696;2023-02-08T01:19:24;-3276.30;77.50
73777;DHT22;62088;50.240;2.696;2023-02-08T01:21:51;-3276.20;77.50
73777;DHT22;62088;50.240;2.696;2023-02-08T01:24:18;-3276.20;77.40
73777;DHT22;62088;50.240;2.696;2023-02-08T01:26:45;-3276.20;77.40
73777;DHT22;62088;50.240;2.696;2023-02-08T01:29:12;-3276.20;77.40
73777;DHT22;62088;50.240;2.696;2023-02-08T01:31:41;-3276.20;77.40
73777;DHT22;62088;50.240;2.696;2023-02-08T01:34:09;-3276.20;77.50
73777;DHT22;62088;50.240;2.696;2023-02-08T01:36:38;-3276.10;77.40
73777;DHT22;62088;50.240;2.696;2023-02-08T01:39:08;-3276.10;77.40
73777;DHT22;62088;50.240;2.696;2023-02-08T01:41:38;-3276.10;77.40
73777;DHT22;62088;50.240;2.696;2023-02-08T01:46:37;-3276.10;77.50
73777;DHT22;62088;50.240;2.696;2023-02-08T01:49:11;-3276.10;77.40
73777;DHT22;62088;50.240;2.696;2023-02-08T01:51:46;-3276.00;77.40
73777;DHT22;62088;50.240;2.696;2023-02-08T01:54:16;-3276.10;77.50
73777;DHT22;62088;50.240;2.696;2023-02-08T01:56:44;-3276.00;77.50
73777;DHT22;62088;50.240;2.696;2023-02-08T01:59:29;-3276.00;77.50
73777;DHT22;62088;50.240;2.696;2023-02-08T02:02:02;-3276.00;77.40
73777;DHT22;62088;50.240;2.696;2023-02-08T02:04:30;-3276.00;77.40
73777;DHT22;62088;50.240;2.696;2023-02-08T02:06:59;-3275.90;77.30
73777;DHT22;62088;50.240;2.696;2023-02-08T02:11:59;-3275.90;77.30
73777;DHT22;62088;50.240;2.696;2023-02-08T02:14:27;-3275.90;77.40
73777;DHT22;62088;50.240;2.696;2023-02-08T02:16:54;-3275.90;77.50
73777;DHT22;62088;50.240;2.696;2023-02-08T02:19:32;-3275.90;77.60
73777;DHT22;62088;50.240;2.696;2023-02-08T02:22:16;-3275.90;77.60
73777;DHT22;62088;50.240;2.696;2023-02-08T02:25:22;-3275.90;77.60
73777;DHT22;62088;50.240;2.696;2023-02-08T02:28:19;-3275.90;77.60
73777;DHT22;62088;50.240;2.696;2023-02-08T02:33:52;-3275.90;77.60
73777;DHT22;62088;50.240;2.696;2023-02-08T02:39:31;-3275.80;77.60
73777;DHT22;62088;50.240;2.696;2023-02-08T02:42:16;-3275.80;77.60
73777;DHT22;62088;50.240;2.696;2023-02-08T02:48:16;-3275.80;77.50
73777;DHT22;62088;50.240;2.696;2023-02-08T02:53:30;-3275.70;77.50
73777;DHT22;62088;50.240;2.696;2023-02-08T02:56:05;-3275.70;77.50
73777;DHT22;62088;50.240;2.696;2023-02-08T02:58:35;-3275.70;77.50
73777;DHT22;62088;50.240;2.696;2023-02-08T03:01:04;-3275.70;77.50
73777;DHT22;62088;50.240;2.696;2023-02-08T03:03:33;-3275.60;77.50
73777;DHT22;62088;50.240;2.696;2023-02-08T03:06:04;-3275.70;77.50
73777;DHT22;62088;50.240;2.696;2023-02-08T03:11:27;-3275.70;77.70
73777;DHT22;62088;50.240;2.696;2023-02-08T03:22:42;-3275.60;77.50
73777;DHT22;62088;50.240;2.696;2023-02-08T03:28:25;-3275.50;77.40
73777;DHT22;62088;50.240;2.696;2023-02-08T03:31:02;-3275.50;77.40
73777;DHT22;62088;50.240;2.696;2023-02-08T03:33:55;-3275.50;77.40
73777;DHT22;62088;50.240;2.696;2023-02-08T03:36:30;-3275.50;77.40
73777;DHT22;62088;50.240;2.696;2023-02-08T03:39:02;-3275.50;77.40
73777;DHT22;62088;50.240;2.696;2023-02-08T03:41:36;-3275.40;77.40
73777;DHT22;62088;50.240;2.696;2023-02-08T03:44:15;-3275.50;77.40
73777;DHT22;62088;50.240;2.696;2023-02-08T03:46:50;-3275.40;77.40
73777;DHT22;62088;50.240;2.696;2023-02-08T03:49:21;-3275.40;77.40
73777;DHT22;62088;50.240;2.696;2023-02-08T03:51:51;-3275.40;77.40
73777;DHT22;62088;50.240;2.696;2023-02-08T03:54:23;-3275.40;77.40
73777;DHT22;62088;50.240;2.696;2023-02-08T03:59:32;-3275.40;77.40
73777;DHT22;62088;50.240;2.696;2023-02-08T04:02:03;-3275.40;77.50
73777;DHT22;62088;50.240;2.696;2023-02-08T04:04:38;-3275.40;77.50
73777;DHT22;62088;50.240;2.696;2023-02-08T04:07:06;-3275.30;77.40
73777;DHT22;62088;50.240;2.696;2023-02-08T04:09:33;-3275.30;77.40
73777;DHT22;62088;50.240;2.696;2023-02-08T04:12:03;-3275.30;77.40
73777;DHT22;62088;50.240;2.696;2023-02-08T04:14:30;-3275.30;77.30
73777;DHT22;62088;50.240;2.696;2023-02-08T04:16:57;-3275.30;77.30
73777;DHT22;62088;50.240;2.696;2023-02-08T04:19:24;-3275.30;77.30
73777;DHT22;62088;50.240;2.696;2023-02-08T04:21:51;-3275.30;77.30
73777;DHT22;62088;50.240;2.696;2023-02-08T04:24:18;-3275.20;77.30
73777;DHT22;62088;50.240;2.696;2023-02-08T04:26:46;-3275.30;77.30
73777;DHT22;62088;50.240;2.696;2023-02-08T04:29:13;-3275.20;77.30
73777;DHT22;62088;50.240;2.696;2023-02-08T04:31:40;-3275.20;77.30
73777;DHT22;62088;50.240;2.696;2023-02-08T04:34:07;-3275.20;77.20
73777;DHT22;62088;50.240;2.696;2023-02-08T04:36:35;-3275.20;77.30
73777;DHT22;62088;50.240;2.696;2023-02-08T04:39:03;-3275.20;77.30
73777;DHT22;62088;50.240;2.696;2023-02-08T04:41:30;-3275.20;77.30
73777;DHT22;62088;50.240;2.696;2023-02-08T04:43:57;-3275.20;77.30
73777;DHT22;62088;50.240;2.696;2023-02-08T04:46:24;-3275.10;77.30
73777;DHT22;62088;50.240;2.696;2023-02-08T04:48:51;-3275.10;77.30
73777;DHT22;62088;50.240;2.696;2023-02-08T04:51:18;-3275.10;77.30
73777;DHT22;62088;50.240;2.696;2023-02-08T04:53:45;-3275.10;77.30
73777;DHT22;62088;50.240;2.696;2023-02-08T04:56:12;-3275.10;77.30
73777;DHT22;62088;50.240;2.696;2023-02-08T04:58:40;-3275.10;77.30
73777;DHT22;62088;50.240;2.696;2023-02-08T05:01:07;-3275.10;77.30
73777;DHT22;62088;50.240;2.696;2023-02-08T05:03:36;-3275.00;77.30
73777;DHT22;62088;50.240;2.696;2023-02-08T05:06:03;-3275.00;77.30
73777;DHT22;62088;50.240;2.696;2023-02-08T05:08:30;-3275.00;77.30
73777;DHT22;62088;50.240;2.696;2023-02-08T05:10:57;-3275.00;77.20
73777;DHT22;62088;50.240;2.696;2023-02-08T05:13:24;-3275.00;77.20
73777;DHT22;62088;50.240;2.696;2023-02-08T05:15:51;-3275.00;77.20
73777;DHT22;62088;50.240;2.696;2023-02-08T05:18:19;-3275.00;77.20
73777;DHT22;62088;50.240;2.696;2023-02-08T05:20:56;-3274.90;77.20
73777;DHT22;62088;50.240;2.696;2023-02-08T05:23:24;-3274.90;77.20
73777;DHT22;62088;50.240;2.696;2023-02-08T05:25:51;-3274.90;77.20
73777;DHT22;62088;50.240;2.696;2023-02-08T05:28:18;-3274.90;77.20
73777;DHT22;62088;50.240;2.696;2023-02-08T05:30:46;-3274.90;77.30
73777;DHT22;62088;50.240;2.696;2023-02-08T05:33:13;-3274.90;77.30
73777;DHT22;62088;50.240;2.696;2023-02-08T05:35:40;-3274.90;77.30
73777;DHT22;62088;50.240;2.696;2023-02-08T05:38:07;-3274.90;77.30
73777;DHT22;62088;50.240;2.696;2023-02-08T05:40:34;-3274.90;77.30
73777;DHT22;62088;50.240;2.696;2023-02-08T05:43:02;-3274.90;77.30
73777;DHT22;62088;50.240;2.696;2023-02-08T05:45:29;-3274.90;77.30
73777;DHT22;62088;50.240;2.696;2023-02-08T05:47:56;-3274.80;77.30
73777;DHT22;62088;50.240;2.696;2023-02-08T05:50:23;-3274.80;77.30
73777;DHT22;62088;50.240;2.696;2023-02-08T05:52:50;-3274.80;77.30
73777;DHT22;62088;50.240;2.696;2023-02-08T05:55:17;-3274.80;77.20
73777;DHT22;62088;50.240;2.696;2023-02-08T05:57:44;-3274.80;77.20
73777;DHT22;62088;50.240;2.696;2023-02-08T06:00:11;-3274.80;77.30
73777;DHT22;62088;50.240;2.696;2023-02-08T06:02:41;-3274.80;77.30
73777;DHT22;62088;50.240;2.696;2023-02-08T06:05:08;-3274.80;77.30
73777;DHT22;62088;50.240;2.696;2023-02-08T06:07:35;-3274.80;77.30
73777;DHT22;62088;50.240;2.696;2023-02-08T06:10:03;-3274.80;77.30
73777;DHT22;62088;50.240;2.696;2023-02-08T06:12:31;-3274.80;77.30
73777;DHT22;62088;50.240;2.696;2023-02-08T06:14:58;-3274.70;77.30
73777;DHT22;62088;50.240;2.696;2023-02-08T06:17:25;-3274.80;77.30
73777;DHT22;62088;50.240;2.696;2023-02-08T06:19:52;-3274.80;77.30
73777;DHT22;62088;50.240;2.696;2023-02-08T06:22:19;-3274.80;77.30
73777;DHT22;62088;50.240;2.696;2023-02-08T06:24:46;-3274.70;77.20
73777;DHT22;62088;50.240;2.696;2023-02-08T06:27:14;-3274.70;77.20
73777;DHT22;62088;50.240;2.696;2023-02-08T06:29:41;-3274.60;77.20
73777;DHT22;62088;50.240;2.696;2023-02-08T06:32:08;-3274.70;77.20
73777;DHT22;62088;50.240;2.696;2023-02-08T06:34:35;-3274.60;77.20
73777;DHT22;62088;50.240;2.696;2023-02-08T06:37:02;-3274.60;77.20
73777;DHT22;62088;50.240;2.696;2023-02-08T06:39:31;-3274.60;77.20
73777;DHT22;62088;50.240;2.696;2023-02-08T06:41:58;-3274.60;77.30
73777;DHT22;62088;50.240;2.696;2023-02-08T06:44:25;-3274.60;77.40
73777;DHT22;62088;50.240;2.696;2023-02-08T06:46:52;-3274.60;77.40
73777;DHT22;62088;50.240;2.696;2023-02-08T06:49:19;-3274.60;77.40
73777;DHT22;62088;50.240;2.696;2023-02-08T06:51:46;-3274.60;77.40
73777;DHT22;62088;50.240;2.696;2023-02-08T06:54:13;-3274.60;77.40
73777;DHT22;62088;50.240;2.696;2023-02-08T06:56:41;-3274.60;77.40
73777;DHT22;62088;50.240;2.696;2023-02-08T06:59:09;-3274.60;77.40
73777;DHT22;62088;50.240;2.696;2023-02-08T07:01:36;-3274.60;77.40
73777;DHT22;62088;50.240;2.696;2023-02-08T07:04:03;-3274.60;77.30
73777;DHT22;62088;50.240;2.696;2023-02-08T07:06:30;-3274.60;77.30
73777;DHT22;62088;50.240;2.696;2023-02-08T07:08:58;-3274.50;77.30
73777;DHT22;62088;50.240;2.696;2023-02-08T07:11:25;-3274.50;77.30
73777;DHT22;62088;50.240;2.696;2023-02-08T07:13:52;-3274.50;77.30
73777;DHT22;62088;50.240;2.696;2023-02-08T07:16:20;-3274.50;77.30
73777;DHT22;62088;50.240;2.696;2023-02-08T07:18:47;-3274.50;77.30
73777;DHT22;62088;50.240;2.696;2023-02-08T07:21:15;-3274.50;77.20
73777;DHT22;62088;50.240;2.696;2023-02-08T07:23:42;-3274.50;77.30
73777;DHT22;62088;50.240;2.696;2023-02-08T07:26:10;-3274.40;77.20
73777;DHT22;62088;50.240;2.696;2023-02-08T07:28:38;-3274.40;77.20
73777;DHT22;62088;50.240;2.696;2023-02-08T07:31:10;-3274.40;77.30
73777;DHT22;62088;50.240;2.696;2023-02-08T07:33:38;-3274.40;77.30
73777;DHT22;62088;50.240;2.696;2023-02-08T07:36:07;-3274.40;77.30
73777;DHT22;62088;50.240;2.696;2023-02-08T07:38:35;-3274.40;77.30
73777;DHT22;62088;50.240;2.696;2023-02-08T07:41:04;-3274.40;77.30
73777;DHT22;62088;50.240;2.696;2023-02-08T07:43:33;-3274.40;77.30
73777;DHT22;62088;50.240;2.696;2023-02-08T07:46:13;-3274.40;77.30
73777;DHT22;62088;50.240;2.696;2023-02-08T07:48:41;-3274.40;77.30
73777;DHT22;62088;50.240;2.696;2023-02-08T07:51:08;-3274.40;77.30
73777;DHT22;62088;50.240;2.696;2023-02-08T07:53:36;-3274.40;77.30
73777;DHT22;62088;50.240;2.696;2023-02-08T07:56:04;-3274.40;77.40
73777;DHT22;62088;50.240;2.696;2023-02-08T07:58:31;-3274.40;77.40
73777;DHT22;62088;50.240;2.696;2023-02-08T08:00:58;-3274.40;77.50
73777;DHT22;62088;50.240;2.696;2023-02-08T08:03:35;-3274.40;77.60
73777;DHT22;62088;50.240;2.696;2023-02-08T08:06:02;-3274.40;77.60
73777;DHT22;62088;50.240;2.696;2023-02-08T08:08:29;-3274.40;77.70
73777;DHT22;62088;50.240;2.696;2023-02-08T08:10:56;-3274.40;77.90
73777;DHT22;62088;50.240;2.696;2023-02-08T08:13:23;-3274.40;77.90
73777;DHT22;62088;50.240;2.696;2023-02-08T08:15:50;-3274.40;78.00
73777;DHT22;62088;50.240;2.696;2023-02-08T08:18:17;-3274.40;78.00
73777;DHT22;62088;50.240;2.696;2023-02-08T08:20:44;-3274.40;78.10
73777;DHT22;62088;50.240;2.696;2023-02-08T08:23:11;-3274.50;78.20
73777;DHT22;62088;50.240;2.696;2023-02-08T08:25:38;-3274.50;78.30
73777;DHT22;62088;50.240;2.696;2023-02-08T08:28:05;-3274.50;78.40
73777;DHT22;62088;50.240;2.696;2023-02-08T08:30:32;-3274.50;78.40
73777;DHT22;62088;50.240;2.696;2023-02-08T08:32:59;-3274.50;78.60
73777;DHT22;62088;50.240;2.696;2023-02-08T08:35:26;-3274.50;78.80
73777;DHT22;62088;50.240;2.696;2023-02-08T08:37:53;-3274.60;78.90
73777;DHT22;62088;50.240;2.696;2023-02-08T08:40:20;-3274.60;79.00
73777;DHT22;62088;50.240;2.696;2023-02-08T08:42:50;-3274.60;79.20
73777;DHT22;62088;50.240;2.696;2023-02-08T08:45:18;-3274.70;79.30
73777;DHT22;62088;50.240;2.696;2023-02-08T08:47:45;-3274.70;79.40
73777;DHT22;62088;50.240;2.696;2023-02-08T08:50:12;-3274.70;79.60
73777;DHT22;62088;50.240;2.696;2023-02-08T08:52:39;-3274.80;79.70
73777;DHT22;62088;50.240;2.696;2023-02-08T08:55:08;-3274.80;80.00
73777;DHT22;62088;50.240;2.696;2023-02-08T08:57:35;-3274.90;80.10
73777;DHT22;62088;50.240;2.696;2023-02-08T09:00:03;-3274.90;80.30
73777;DHT22;62088;50.240;2.696;2023-02-08T09:02:30;-3274.90;80.40
73777;DHT22;62088;50.240;2.696;2023-02-08T09:04:57;-3275.00;80.60
73777;DHT22;62088;50.240;2.696;2023-02-08T09:07:26;-3275.10;80.80
73777;DHT22;62088;50.240;2.696;2023-02-08T09:09:53;-3275.10;80.90
73777;DHT22;62088;50.240;2.696;2023-02-08T09:12:20;-3275.20;81.10
73777;DHT22;62088;50.240;2.696;2023-02-08T09:14:47;-3275.20;81.20
73777;DHT22;62088;50.240;2.696;2023-02-08T09:17:14;-3275.30;81.40
73777;DHT22;62088;50.240;2.696;2023-02-08T09:19:41;-3275.30;81.60
73777;DHT22;62088;50.240;2.696;2023-02-08T09:22:08;-3275.40;81.80
73777;DHT22;62088;50.240;2.696;2023-02-08T09:24:35;-3275.50;81.90
73777;DHT22;62088;50.240;2.696;2023-02-08T09:27:02;-3275.50;82.10
73777;DHT22;62088;50.240;2.696;2023-02-08T09:29:29;-3275.70;82.30
73777;DHT22;62088;50.240;2.696;2023-02-08T09:31:58;-3275.80;82.40
73777;DHT22;62088;50.240;2.696;2023-02-08T09:34:25;-3275.90;82.50
73777;DHT22;62088;50.240;2.696;2023-02-08T09:36:52;-3276.00;82.60
73777;DHT22;62088;50.240;2.696;2023-02-08T09:39:21;-3276.10;82.60
73777;DHT22;62088;50.240;2.696;2023-02-08T09:47:32;-3276.40;82.60
73777;DHT22;62088;50.240;2.696;2023-02-08T09:50:11;-3276.50;82.70
73777;DHT22;62088;50.240;2.696;2023-02-08T09:58:02;0.00;82.80
73777;DHT22;62088;50.240;2.696;2023-02-08T10:00:35;0.10;82.90
73777;DHT22;62088;50.240;2.696;2023-02-08T10:03:04;0.30;82.90
73777;DHT22;62088;50.240;2.696;2023-02-08T10:05:34;0.40;82.80
73777;DHT22;62088;50.240;2.696;2023-02-08T10:08:01;0.60;82.50
73777;DHT22;62088;50.240;2.696;2023-02-08T10:10:51;0.80;82.20
73777;DHT22;62088;50.240;2.696;2023-02-08T10:13:59;1.00;81.80
73777;DHT22;62088;50.240;2.696;2023-02-08T10:16:44;1.20;81.20
73777;DHT22;62088;50.240;2.696;2023-02-08T10:24:43;1.90;77.30
73777;DHT22;62088;50.240;2.696;2023-02-08T10:27:16;2.10;75.80
73777;DHT22;62088;50.240;2.696;2023-02-08T10:32:44;2.40;73.00
73777;DHT22;62088;50.240;2.696;2023-02-08T10:35:27;2.60;71.80
73777;DHT22;62088;50.240;2.696;2023-02-08T10:37:55;2.80;71.40
73777;DHT22;62088;50.240;2.696;2023-02-08T10:40:37;2.90;68.30
73777;DHT22;62088;50.240;2.696;2023-02-08T10:51:30;3.50;67.60
73777;DHT22;62088;50.240;2.696;2023-02-08T10:53:57;3.60;66.40
73777;DHT22;62088;50.240;2.696;2023-02-08T10:58:57;3.90;65.80
73777;DHT22;62088;50.240;2.696;2023-02-08T11:01:25;4.00;65.00
73777;DHT22;62088;50.240;2.696;2023-02-08T11:04:07;4.20;64.40
73777;DHT22;62088;50.240;2.696;2023-02-08T11:06:38;4.30;63.80
73777;DHT22;62088;50.240;2.696;2023-02-08T11:09:10;4.40;63.40
73777;DHT22;62088;50.240;2.696;2023-02-08T11:11:44;4.50;63.00
73777;DHT22;62088;50.240;2.696;2023-02-08T11:14:17;4.60;61.90
73777;DHT22;62088;50.240;2.696;2023-02-08T11:16:52;4.70;60.90
73777;DHT22;62088;50.240;2.696;2023-02-08T11:19:34;4.90;60.30
73777;DHT22;62088;50.240;2.696;2023-02-08T11:22:02;4.90;58.50
73777;DHT22;62088;50.240;2.696;2023-02-08T11:24:37;5.00;58.30
73777;DHT22;62088;50.240;2.696;2023-02-08T11:30:25;5.20;57.80
73777;DHT22;62088;50.240;2.696;2023-02-08T11:33:15;5.40;58.00
73777;DHT22;62088;50.240;2.696;2023-02-08T11:35:53;5.50;57.30
73777;DHT22;62088;50.240;2.696;2023-02-08T11:38:20;5.50;55.60
73777;DHT22;62088;50.240;2.696;2023-02-08T11:40:59;5.50;55.70
73777;DHT22;62088;50.240;2.696;2023-02-08T11:43:32;5.60;55.50
73777;DHT22;62088;50.240;2.696;2023-02-08T11:46:01;5.70;54.40
73777;DHT22;62088;50.240;2.696;2023-02-08T11:48:42;5.60;53.90
73777;DHT22;62088;50.240;2.696;2023-02-08T11:51:12;5.70;53.40
73777;DHT22;62088;50.240;2.696;2023-02-08T11:53:46;5.70;52.70
73777;DHT22;62088;50.240;2.696;2023-02-08T11:58:40;5.90;52.60
73777;DHT22;62088;50.240;2.696;2023-02-08T12:01:20;5.90;51.90
73777;DHT22;62088;50.240;2.696;2023-02-08T12:03:49;6.00;50.90
73777;DHT22;62088;50.240;2.696;2023-02-08T12:11:52;6.40;50.50
73777;DHT22;62088;50.240;2.696;2023-02-08T12:33:19;7.00;48.10
73777;DHT22;62088;50.240;2.696;2023-02-08T12:44:45;7.30;48.10
73777;DHT22;62088;50.240;2.696;2023-02-08T12:48:12;7.30;48.40
73777;DHT22;62088;50.240;2.696;2023-02-08T12:51:07;7.30;49.00
73777;DHT22;62088;50.240;2.696;2023-02-08T12:53:40;7.40;49.20
73777;DHT22;62088;50.240;2.696;2023-02-08T12:56:16;7.40;47.30
73777;DHT22;62088;50.240;2.696;2023-02-08T12:58:46;7.40;47.30
73777;DHT22;62088;50.240;2.696;2023-02-08T13:01:25;7.40;47.40
73777;DHT22;62088;50.240;2.696;2023-02-08T13:04:07;7.50;47.70
73777;DHT22;62088;50.240;2.696;2023-02-08T13:06:42;7.60;47.80
73777;DHT22;62088;50.240;2.696;2023-02-08T13:14:50;7.80;44.90
73777;DHT22;62088;50.240;2.696;2023-02-08T13:20:10;7.70;44.70
73777;DHT22;62088;50.240;2.696;2023-02-08T13:22:42;7.70;44.30
73777;DHT22;62088;50.240;2.696;2023-02-08T13:25:25;7.70;43.70
73777;DHT22;62088;50.240;2.696;2023-02-08T13:27:57;7.70;44.60
73777;DHT22;62088;50.240;2.696;2023-02-08T13:30:25;7.70;45.40
73777;DHT22;62088;50.240;2.696;2023-02-08T13:32:52;7.70;45.50
73777;DHT22;62088;50.240;2.696;2023-02-08T13:35:25;7.70;45.60
73777;DHT22;62088;50.240;2.696;2023-02-08T13:38:03;7.80;45.80
73777;DHT22;62088;50.240;2.696;2023-02-08T13:40:35;7.90;45.80
73777;DHT22;62088;50.240;2.696;2023-02-08T13:43:18;7.90;46.00
73777;DHT22;62088;50.240;2.696;2023-02-08T13:46:01;7.90;46.00
73777;DHT22;62088;50.240;2.696;2023-02-08T13:48:40;7.90;46.20
73777;DHT22;62088;50.240;2.696;2023-02-08T13:56:42;8.20;46.90
73777;DHT22;62088;50.240;2.696;2023-02-08T14:02:18;8.20;46.10
73777;DHT22;62088;50.240;2.696;2023-02-08T14:04:50;8.30;45.90
73777;DHT22;62088;50.240;2.696;2023-02-08T14:07:28;8.30;45.70
73777;DHT22;62088;50.240;2.696;2023-02-08T14:10:38;8.40;45.60
73777;DHT22;62088;50.240;2.696;2023-02-08T14:15:43;8.40;46.00
73777;DHT22;62088;50.240;2.696;2023-02-08T14:18:26;8.30;46.00
73777;DHT22;62088;50.240;2.696;2023-02-08T14:21:00;8.30;45.90
73777;DHT22;62088;50.240;2.696;2023-02-08T14:23:29;8.30;46.00
73777;DHT22;62088;50.240;2.696;2023-02-08T14:26:00;8.30;46.00
73777;DHT22;62088;50.240;2.696;2023-02-08T14:28:33;8.30;45.70
73777;DHT22;62088;50.240;2.696;2023-02-08T14:31:04;8.30;45.50
73777;DHT22;62088;50.240;2.696;2023-02-08T14:33:41;8.20;45.50
73777;DHT22;62088;50.240;2.696;2023-02-08T14:36:30;8.20;45.90
73777;DHT22;62088;50.240;2.696;2023-02-08T14:39:33;8.20;46.50
73777;DHT22;62088;50.240;2.696;2023-02-08T14:42:04;8.10;46.70
73777;DHT22;62088;50.240;2.696;2023-02-08T14:55:49;7.90;46.90
73777;DHT22;62088;50.240;2.696;2023-02-08T14:58:26;7.90;47.40
73777;DHT22;62088;50.240;2.696;2023-02-08T15:00:56;7.90;47.30
73777;DHT22;62088;50.240;2.696;2023-02-08T15:03:27;7.80;47.30
73777;DHT22;62088;50.240;2.696;2023-02-08T15:09:06;7.60;47.60
73777;DHT22;62088;50.240;2.696;2023-02-08T15:11:39;7.50;47.60
73777;DHT22;62088;50.240;2.696;2023-02-08T15:14:17;7.40;47.80
73777;DHT22;62088;50.240;2.696;2023-02-08T15:16:45;7.40;48.10
73777;DHT22;62088;50.240;2.696;2023-02-08T15:19:28;7.30;48.40
73777;DHT22;62088;50.240;2.696;2023-02-08T15:24:54;7.20;49.00
73777;DHT22;62088;50.240;2.696;2023-02-08T15:27:24;7.20;48.90
73777;DHT22;62088;50.240;2.696;2023-02-08T15:29:51;7.10;48.70
73777;DHT22;62088;50.240;2.696;2023-02-08T15:32:21;7.10;48.70
73777;DHT22;62088;50.240;2.696;2023-02-08T15:35:00;7.00;48.60
73777;DHT22;62088;50.240;2.696;2023-02-08T15:37:31;7.00;48.60
73777;DHT22;62088;50.240;2.696;2023-02-08T15:40:00;7.00;48.70
73777;DHT22;62088;50.240;2.696;2023-02-08T15:42:32;7.00;48.70
73777;DHT22;62088;50.240;2.696;2023-02-08T15:44:59;7.00;48.90
73777;DHT22;62088;50.240;2.696;2023-02-08T15:47:33;7.00;49.20
73777;DHT22;62088;50.240;2.696;2023-02-08T15:50:04;7.00;49.50
73777;DHT22;62088;50.240;2.696;2023-02-08T15:52:34;7.00;49.90
73777;DHT22;62088;50.240;2.696;2023-02-08T15:55:05;7.00;50.10
73777;DHT22;62088;50.240;2.696;2023-02-08T15:57:39;6.90;50.10
73777;DHT22;62088;50.240;2.696;2023-02-08T16:00:19;6.90;50.40
73777;DHT22;62088;50.240;2.696;2023-02-08T16:03:01;6.90;50.70
73777;DHT22;62088;50.240;2.696;2023-02-08T16:05:31;6.90;50.90
73777;DHT22;62088;50.240;2.696;2023-02-08T16:08:00;6.90;51.10
73777;DHT22;62088;50.240;2.696;2023-02-08T16:10:32;6.80;51.20
73777;DHT22;62088;50.240;2.696;2023-02-08T16:13:15;6.80;51.30
73777;DHT22;62088;50.240;2.696;2023-02-08T16:15:46;6.70;51.50
73777;DHT22;62088;50.240;2.696;2023-02-08T16:18:54;6.70;51.70
73777;DHT22;62088;50.240;2.696;2023-02-08T16:23:57;6.50;52.10
73777;DHT22;62088;50.240;2.696;2023-02-08T16:26:26;6.50;52.30
73777;DHT22;62088;50.240;2.696;2023-02-08T16:29:00;6.40;52.40
73777;DHT22;62088;50.240;2.696;2023-02-08T16:31:30;6.40;52.60
73777;DHT22;62088;50.240;2.696;2023-02-08T16:34:04;6.30;52.70
73777;DHT22;62088;50.240;2.696;2023-02-08T16:36:36;6.20;52.80
73777;DHT22;62088;50.240;2.696;2023-02-08T16:44:57;6.00;53.80
73777;DHT22;62088;50.240;2.696;2023-02-08T16:47:39;5.90;54.30
73777;DHT22;62088;50.240;2.696;2023-02-08T16:50:08;5.80;54.70
73777;DHT22;62088;50.240;2.696;2023-02-08T16:52:35;5.70;55.10
73777;DHT22;62088;50.240;2.696;2023-02-08T16:55:03;5.60;55.50
73777;DHT22;62088;50.240;2.696;2023-02-08T16:57:51;5.50;55.80
73777;DHT22;62088;50.240;2.696;2023-02-08T17:02:47;5.40;56.30
73777;DHT22;62088;50.240;2.696;2023-02-08T17:05:15;5.30;56.50
73777;DHT22;62088;50.240;2.696;2023-02-08T17:07:43;5.20;56.60
73777;DHT22;62088;50.240;2.696;2023-02-08T17:10:16;5.10;56.90
73777;DHT22;62088;50.240;2.696;2023-02-08T17:12:44;5.00;57.10
73777;DHT22;62088;50.240;2.696;2023-02-08T17:15:11;4.90;57.40
73777;DHT22;62088;50.240;2.696;2023-02-08T17:17:38;4.90;57.60
73777;DHT22;62088;50.240;2.696;2023-02-08T17:20:19;4.80;57.80
73777;DHT22;62088;50.240;2.696;2023-02-08T17:22:46;4.70;57.90
73777;DHT22;62088;50.240;2.696;2023-02-08T17:25:14;4.60;58.00
73777;DHT22;62088;50.240;2.696;2023-02-08T17:27:56;4.50;58.20
73777;DHT22;62088;50.240;2.696;2023-02-08T17:30:33;4.40;58.50
73777;DHT22;62088;50.240;2.696;2023-02-08T17:33:02;4.40;58.80
73777;DHT22;62088;50.240;2.696;2023-02-08T17:35:30;4.20;59.10
73777;DHT22;62088;50.240;2.696;2023-02-08T17:37:59;4.20;59.30
73777;DHT22;62088;50.240;2.696;2023-02-08T17:40:29;4.10;59.60
73777;DHT22;62088;50.240;2.696;2023-02-08T17:42:59;4.00;59.80
73777;DHT22;62088;50.240;2.696;2023-02-08T17:45:27;4.00;60.10
73777;DHT22;62088;50.240;2.696;2023-02-08T17:47:55;3.90;60.40
73777;DHT22;62088;50.240;2.696;2023-02-08T17:50:25;3.80;60.50
73777;DHT22;62088;50.240;2.696;2023-02-08T17:52:52;3.70;60.60
73777;DHT22;62088;50.240;2.696;2023-02-08T17:55:19;3.70;60.80
73777;DHT22;62088;50.240;2.696;2023-02-08T17:57:46;3.60;61.00
73777;DHT22;62088;50.240;2.696;2023-02-08T18:00:19;3.60;61.20
73777;DHT22;62088;50.240;2.696;2023-02-08T18:02:49;3.50;61.40
73777;DHT22;62088;50.240;2.696;2023-02-08T18:05:20;3.50;61.70